Time;durP1;ratioP1;P1;durP2;ratioP2;P2;SDS_P1;SDS_P2;PMS_P1;PMS_P2;Temp;Humidity;BMP_temperature;BMP_pressure;BME280_temperature;BME280_humidity;BME280_pressure;Samples;Min_cycle;Max_cycle;Signal;HPM_P1;HPM_P2
2023/05/09 00:02:05;;;;;;;5.28;4.78;;;16.60;70.20;;;;;;4938162;28;20298;-83
2023/05/09 00:04:31;;;;;;;4.50;4.10;;;16.50;70.10;;;;;;4934210;28;20183;-84
2023/05/09 00:06:57;;;;;;;5.22;4.82;;;16.60;70.30;;;;;;4940503;28;20046;-81
2023/05/09 00:09:24;;;;;;;5.15;4.75;;;16.50;70.20;;;;;;4932811;28;20075;-81
2023/05/09 00:11:50;;;;;;;6.13;5.53;;;16.50;70.20;;;;;;4950422;28;20038;-82
2023/05/09 00:14:17;;;;;;;5.03;4.32;;;16.50;70.30;;;;;;4938559;28;20368;-81
2023/05/09 00:16:46;;;;;;;4.85;4.43;;;16.50;70.30;;;;;;4940902;28;20042;-81
2023/05/09 00:19:12;;;;;;;5.30;4.80;;;16.50;70.30;;;;;;4933680;28;20122;-81
2023/05/09 00:21:38;;;;;;;5.47;4.97;;;16.50;70.30;;;;;;4941048;28;20110;-82
2023/05/09 00:24:04;;;;;;;5.88;5.30;;;16.50;70.40;;;;;;4941211;28;20129;-82
2023/05/09 00:26:30;;;;;;;4.75;4.35;;;16.40;70.20;;;;;;4933777;28;20103;-81
2023/05/09 00:28:56;;;;;;;5.18;4.53;;;16.50;70.40;;;;;;4928836;28;20055;-81
2023/05/09 00:31:22;;;;;;;5.00;4.57;;;16.40;70.20;;;;;;4939821;28;20035;-81
2023/05/09 00:33:48;;;;;;;6.15;5.00;;;16.40;70.30;;;;;;4925173;29;20395;-82
2023/05/09 00:36:14;;;;;;;5.70;4.95;;;16.40;70.30;;;;;;4936314;28;20125;-82
2023/05/09 00:38:40;;;;;;;4.80;4.40;;;16.40;70.30;;;;;;4940820;28;20039;-82
2023/05/09 00:41:07;;;;;;;6.40;5.43;;;16.40;70.30;;;;;;4954922;28;20264;-81
2023/05/09 00:43:33;;;;;;;5.15;4.60;;;16.40;70.30;;;;;;4953872;28;20114;-81
2023/05/09 00:45:59;;;;;;;5.68;4.25;;;16.40;70.30;;;;;;4955170;28;20084;-80
2023/05/09 00:48:25;;;;;;;4.78;4.30;;;16.40;70.30;;;;;;4955257;28;20307;-81
2023/05/09 00:50:51;;;;;;;4.60;4.15;;;16.40;70.40;;;;;;4948454;28;20089;-81
2023/05/09 00:53:19;;;;;;;4.43;4.00;;;16.40;70.40;;;;;;4953506;28;20464;-82
2023/05/09 00:55:46;;;;;;;5.63;5.13;;;16.40;70.40;;;;;;4948192;28;20484;-82
2023/05/09 00:58:12;;;;;;;4.10;3.28;;;16.40;70.40;;;;;;4933065;28;20110;-81
2023/05/09 01:00:38;;;;;;;3.83;3.53;;;16.40;70.40;;;;;;4940028;28;20047;-81
2023/05/09 01:03:05;;;;;;;5.00;4.53;;;16.40;70.40;;;;;;4939383;28;20047;-83
2023/05/09 01:06:02;;;;;;;3.92;3.53;;;16.40;70.50;;;;;;4938076;28;20558;-83
2023/05/09 01:08:49;;;;;;;4.30;3.90;;;16.30;70.40;;;;;;4932931;28;20205;-83
2023/05/09 01:11:33;;;;;;;4.65;4.07;;;16.30;70.30;;;;;;4936032;28;20395;-85
2023/05/09 01:14:07;;;;;;;4.00;3.65;;;16.30;70.40;;;;;;4937892;28;20027;-83
2023/05/09 01:16:41;;;;;;;3.67;3.38;;;16.30;70.40;;;;;;4941680;28;20051;-83
2023/05/09 01:19:17;;;;;;;4.50;4.10;;;16.30;70.40;;;;;;4937115;28;20036;-82
2023/05/09 01:21:47;;;;;;;4.40;4.00;;;16.20;70.20;;;;;;4944552;28;20035;-82
2023/05/09 01:24:43;;;;;;;3.97;3.58;;;16.20;70.30;;;;;;4945519;28;20039;-82
2023/05/09 01:27:31;;;;;;;4.93;3.50;;;16.20;70.40;;;;;;4936916;28;20036;-82
2023/05/09 01:30:01;;;;;;;3.85;3.55;;;16.20;70.40;;;;;;4935304;28;20550;-81
2023/05/09 01:32:29;;;;;;;3.58;3.28;;;16.20;70.30;;;;;;4941078;28;20034;-82
2023/05/09 01:35:00;;;;;;;4.30;3.95;;;16.20;70.40;;;;;;4942626;28;20304;-81
2023/05/09 01:37:31;;;;;;;3.42;3.13;;;16.20;70.40;;;;;;4942760;28;20042;-82
2023/05/09 01:40:04;;;;;;;4.03;3.63;;;16.20;70.50;;;;;;4940854;28;20087;-80
2023/05/09 01:42:42;;;;;;;5.03;3.90;;;16.20;71.00;;;;;;4946430;28;20051;-81
2023/05/09 01:45:10;;;;;;;4.43;4.03;;;16.20;70.50;;;;;;4947404;28;20039;-80
2023/05/09 01:47:38;;;;;;;4.65;4.25;;;16.20;70.50;;;;;;4952800;28;20104;-82
2023/05/09 01:50:05;;;;;;;4.03;3.47;;;16.20;70.50;;;;;;4952586;28;20207;-80
2023/05/09 01:52:33;;;;;;;3.47;3.17;;;16.20;70.50;;;;;;4952075;28;20038;-82
2023/05/09 01:55:01;;;;;;;3.53;3.22;;;16.10;70.40;;;;;;4959883;28;20039;-83
2023/05/09 01:57:29;;;;;;;4.00;3.60;;;16.20;70.60;;;;;;4961527;28;20071;-82
2023/05/09 01:59:57;;;;;;;3.30;3.00;;;16.10;70.40;;;;;;4937073;29;20155;-82
2023/05/09 02:02:26;;;;;;;3.78;3.47;;;16.20;70.60;;;;;;4955291;28;20035;-82
2023/05/09 02:04:55;;;;;;;3.63;3.33;;;16.20;70.70;;;;;;4951083;28;20035;-83
2023/05/09 02:07:23;;;;;;;3.83;3.53;;;16.10;70.40;;;;;;4954960;28;20081;-81
2023/05/09 02:09:55;;;;;;;3.28;2.97;;;16.10;70.50;;;;;;4954486;28;20034;-82
2023/05/09 02:12:22;;;;;;;3.50;3.20;;;16.10;70.50;;;;;;4957493;28;20139;-82
2023/05/09 02:14:49;;;;;;;4.80;4.40;;;16.20;70.70;;;;;;4945452;28;20255;-83
2023/05/09 02:17:16;;;;;;;3.88;3.58;;;16.10;70.50;;;;;;4952843;28;20043;-82
2023/05/09 02:19:42;;;;;;;3.55;3.25;;;16.10;70.50;;;;;;4970330;28;20011;-81
2023/05/09 02:22:09;;;;;;;4.63;3.75;;;16.10;70.60;;;;;;4988567;28;20031;-81
2023/05/09 02:24:35;;;;;;;5.32;4.22;;;16.10;70.60;;;;;;4981299;28;20034;-81
2023/05/09 02:27:06;;;;;;;4.03;3.63;;;16.10;70.60;;;;;;4989477;28;20045;-83
2023/05/09 02:29:39;;;;;;;3.75;3.45;;;16.10;70.70;;;;;;4982816;28;20030;-83
2023/05/09 02:32:14;;;;;;;4.00;3.70;;;16.10;70.70;;;;;;4980804;28;20126;-83
2023/05/09 02:34:41;;;;;;;3.90;3.60;;;16.10;70.70;;;;;;4953970;28;20066;-82
2023/05/09 02:37:09;;;;;;;4.70;4.30;;;16.10;70.70;;;;;;4952386;28;20455;-82
2023/05/09 02:39:35;;;;;;;5.97;4.75;;;16.10;71.30;;;;;;4953173;28;20039;-83
2023/05/09 02:42:06;;;;;;;5.18;4.68;;;16.10;70.80;;;;;;4946287;28;20322;-82
2023/05/09 02:44:33;;;;;;;4.75;4.35;;;16.10;70.80;;;;;;4943656;28;20049;-81
2023/05/09 02:47:00;;;;;;;5.20;4.18;;;16.10;70.80;;;;;;4946173;28;20137;-80
2023/05/09 02:49:26;;;;;;;5.18;4.68;;;16.10;70.80;;;;;;4962527;28;20034;-80
2023/05/09 02:51:52;;;;;;;5.18;4.53;;;16.00;70.60;;;;;;4958590;28;20123;-83
2023/05/09 02:54:19;;;;;;;5.35;4.85;;;16.10;70.80;;;;;;4962103;28;20363;-83
2023/05/09 02:56:45;;;;;;;5.13;4.57;;;16.00;70.70;;;;;;4949626;28;20043;-82
2023/05/09 02:59:11;;;;;;;5.50;4.95;;;16.00;70.70;;;;;;4949045;28;20078;-82
2023/05/09 03:01:37;;;;;;;5.70;4.57;;;16.00;70.70;;;;;;4947394;28;20218;-82
2023/05/09 03:04:03;;;;;;;6.22;4.93;;;16.00;70.70;;;;;;4961485;28;20399;-82
2023/05/09 03:06:29;;;;;;;6.05;5.28;;;16.00;70.70;;;;;;4944272;29;20495;-82
2023/05/09 03:08:55;;;;;;;5.53;5.03;;;16.00;70.70;;;;;;4946538;29;20634;-81
2023/05/09 03:11:23;;;;;;;7.15;5.53;;;16.00;70.80;;;;;;4952508;28;20035;-81
2023/05/09 03:13:49;;;;;;;5.95;5.32;;;16.00;70.80;;;;;;4938705;28;20032;-81
2023/05/09 03:16:17;;;;;;;5.65;4.43;;;16.00;70.80;;;;;;4945102;28;20035;-83
2023/05/09 03:18:44;;;;;;;7.55;6.05;;;16.00;70.80;;;;;;4959622;28;20632;-82
2023/05/09 03:21:09;;;;;;;5.68;4.80;;;16.00;70.80;;;;;;4948302;28;20166;-82
2023/05/09 03:23:38;;;;;;;6.13;5.50;;;16.00;70.80;;;;;;4956128;28;20031;-82
2023/05/09 03:26:04;;;;;;;4.75;4.35;;;16.00;70.90;;;;;;4950133;28;20042;-82
2023/05/09 03:28:30;;;;;;;5.15;4.65;;;16.00;70.90;;;;;;4946289;28;20030;-82
2023/05/09 03:31:00;;;;;;;6.43;5.32;;;15.90;70.70;;;;;;4963956;28;20163;-84
2023/05/09 03:33:27;;;;;;;7.18;5.10;;;16.00;71.00;;;;;;4946688;28;20126;-83
2023/05/09 03:35:54;;;;;;;6.20;5.47;;;15.90;70.80;;;;;;4937897;29;20054;-81
2023/05/09 03:38:23;;;;;;;8.13;5.88;;;15.90;70.80;;;;;;4939082;28;20027;-82
2023/05/09 03:40:50;;;;;;;6.47;5.50;;;15.90;70.80;;;;;;4957342;28;20039;-81
2023/05/09 03:43:16;;;;;;;5.95;4.53;;;15.90;70.80;;;;;;4946974;28;20453;-83
2023/05/09 03:45:42;;;;;;;5.88;5.38;;;15.90;70.80;;;;;;4947635;28;20047;-82
2023/05/09 03:48:11;;;;;;;6.53;5.68;;;15.90;70.90;;;;;;4946710;29;20522;-83
2023/05/09 03:50:42;;;;;;;7.03;6.32;;;15.90;70.90;;;;;;4943459;29;20043;-83
2023/05/09 03:53:09;;;;;;;6.05;5.20;;;15.90;71.00;;;;;;4945292;29;20066;-82
2023/05/09 03:55:37;;;;;;;5.72;5.07;;;15.90;70.90;;;;;;4946416;28;20043;-82
2023/05/09 03:58:03;;;;;;;6.15;5.60;;;15.90;71.00;;;;;;4945586;29;20043;-82
2023/05/09 04:00:30;;;;;;;6.32;5.47;;;15.90;71.00;;;;;;4946086;29;20042;-81
2023/05/09 04:03:05;;;;;;;6.88;5.97;;;15.80;70.80;;;;;;4946165;29;20454;-83
2023/05/09 04:05:36;;;;;;;5.13;4.70;;;15.80;70.80;;;;;;4946160;29;20056;-83
2023/05/09 04:08:05;;;;;;;5.43;4.90;;;15.80;70.90;;;;;;4942795;29;20039;-80
2023/05/09 04:10:32;;;;;;;6.15;5.55;;;15.80;70.90;;;;;;4945436;29;20042;-81
2023/05/09 04:12:58;;;;;;;5.75;4.93;;;15.80;70.90;;;;;;4945022;28;20109;-80
2023/05/09 04:15:24;;;;;;;7.63;5.38;;;15.80;71.00;;;;;;4950306;29;20047;-81
2023/05/09 04:17:50;;;;;;;5.93;5.32;;;15.80;71.00;;;;;;4929539;28;20039;-80
2023/05/09 04:20:16;;;;;;;6.15;5.22;;;15.80;71.00;;;;;;4949370;29;20031;-80
2023/05/09 04:22:42;;;;;;;6.47;5.60;;;15.80;71.00;;;;;;4949169;29;20142;-80
2023/05/09 04:25:13;;;;;;;6.72;5.50;;;15.80;71.10;;;;;;4948535;29;20118;-82
2023/05/09 04:27:39;;;;;;;5.90;5.30;;;15.80;71.00;;;;;;4951331;28;20148;-82
2023/05/09 04:30:06;;;;;;;7.10;5.45;;;15.80;71.10;;;;;;4964026;28;20636;-82
2023/05/09 04:32:34;;;;;;;6.10;5.53;;;15.80;71.10;;;;;;4952639;28;20055;-80
2023/05/09 04:35:00;;;;;;;6.03;5.40;;;15.80;71.10;;;;;;4957820;28;20121;-80
2023/05/09 04:37:31;;;;;;;6.03;4.70;;;15.80;71.60;;;;;;4947658;28;20027;-81
2023/05/09 04:39:58;;;;;;;5.85;5.10;;;15.80;71.00;;;;;;4948088;28;20035;-82
2023/05/09 04:42:32;;;;;;;6.35;5.47;;;15.90;71.20;;;;;;4946532;29;20518;-81
2023/05/09 04:44:59;;;;;;;7.53;4.68;;;15.80;71.00;;;;;;4948468;29;20590;-83
2023/05/09 04:47:26;;;;;;;6.50;4.90;;;15.80;71.00;;;;;;4947625;28;20316;-82
2023/05/09 04:49:52;;;;;;;5.93;4.72;;;15.80;71.00;;;;;;4946518;28;20093;-82
2023/05/09 04:52:18;;;;;;;5.68;4.70;;;15.80;71.00;;;;;;4940186;28;20035;-82
2023/05/09 04:54:44;;;;;;;7.00;5.28;;;15.80;71.00;;;;;;4947011;29;20038;-82
2023/05/09 04:57:12;;;;;;;7.20;4.93;;;15.80;71.00;;;;;;4928039;29;20047;-80
2023/05/09 04:59:38;;;;;;;5.43;4.93;;;15.80;71.00;;;;;;4945151;28;20462;-80
2023/05/09 05:02:05;;;;;;;5.90;4.93;;;15.80;71.00;;;;;;4937281;28;20041;-80
2023/05/09 05:04:31;;;;;;;6.72;5.70;;;15.80;71.00;;;;;;4935796;29;20039;-80
2023/05/09 05:06:57;;;;;;;5.55;4.95;;;15.80;71.00;;;;;;4937671;28;20078;-80
2023/05/09 05:09:23;;;;;;;6.20;5.60;;;15.80;71.00;;;;;;4934636;28;20107;-80
2023/05/09 05:11:50;;;;;;;7.00;5.22;;;15.80;70.90;;;;;;4935025;28;20038;-82
2023/05/09 05:14:16;;;;;;;6.35;5.57;;;15.80;70.90;;;;;;4938743;28;20038;-81
2023/05/09 05:16:42;;;;;;;6.32;5.70;;;15.90;71.10;;;;;;4938229;28;20079;-82
2023/05/09 05:19:08;;;;;;;7.55;5.70;;;15.80;70.90;;;;;;4940802;28;20077;-83
2023/05/09 05:21:37;;;;;;;6.85;5.63;;;15.90;71.00;;;;;;4943992;28;20200;-84
2023/05/09 05:24:04;;;;;;;6.03;4.68;;;15.90;71.00;;;;;;4939282;28;20039;-82
2023/05/09 05:26:30;;;;;;;6.65;4.97;;;15.90;70.90;;;;;;4930632;28;20099;-82
2023/05/09 05:28:56;;;;;;;7.70;5.78;;;16.00;71.00;;;;;;4929440;28;20107;-84
2023/05/09 05:31:24;;;;;;;9.48;6.68;;;16.00;70.90;;;;;;4934108;28;20039;-83
2023/05/09 05:33:50;;;;;;;8.38;5.75;;;16.00;70.80;;;;;;4934298;28;20191;-81
2023/05/09 05:36:16;;;;;;;8.90;5.38;;;16.00;70.80;;;;;;4928837;28;20456;-82
2023/05/09 05:38:42;;;;;;;6.32;5.55;;;16.00;70.70;;;;;;4932931;28;20039;-81
2023/05/09 05:41:11;;;;;;;6.60;4.93;;;16.10;70.90;;;;;;4940652;28;20093;-82
2023/05/09 05:43:38;;;;;;;6.72;4.30;;;16.00;70.70;;;;;;4936809;28;20177;-81
2023/05/09 05:46:04;;;;;;;6.68;5.00;;;16.10;70.80;;;;;;4941103;28;20498;-81
2023/05/09 05:48:32;;;;;;;5.80;5.07;;;16.00;70.70;;;;;;4929668;29;20054;-82
2023/05/09 05:50:58;;;;;;;6.40;4.25;;;16.00;70.70;;;;;;4949733;28;20546;-80
2023/05/09 05:53:27;;;;;;;5.25;4.70;;;16.00;70.80;;;;;;4934755;28;20031;-83
2023/05/09 05:55:52;;;;;;;4.00;3.50;;;16.00;71.40;;;;;;4940161;28;20159;-84
2023/05/09 05:58:18;;;;;;;7.50;4.35;;;16.10;72.00;;;;;;4938692;28;20503;-82
2023/05/09 06:00:44;;;;;;;4.43;4.00;;;16.10;72.40;;;;;;4939834;29;20071;-85
2023/05/09 06:03:13;;;;;;;7.68;4.30;;;16.20;72.70;;;;;;4922202;28;20031;-80
2023/05/09 06:05:59;;;;;;;6.07;4.05;;;16.20;72.70;;;;;;4934759;28;20138;-83
2023/05/09 06:08:26;;;;;;;5.00;4.07;;;16.30;72.80;;;;;;4937469;28;20035;-82
2023/05/09 06:10:52;;;;;;;7.22;4.22;;;16.20;72.60;;;;;;4937821;28;20053;-81
2023/05/09 06:13:18;;;;;;;7.32;3.97;;;16.20;72.60;;;;;;4935251;28;20089;-81
2023/05/09 06:15:49;;;;;;;4.72;3.83;;;16.20;72.60;;;;;;4930574;28;20081;-81
2023/05/09 06:18:15;;;;;;;7.18;3.95;;;16.20;72.60;;;;;;4933146;28;20209;-81
2023/05/09 06:20:41;;;;;;;7.07;4.43;;;16.20;72.60;;;;;;4917610;29;20492;-81
2023/05/09 06:23:07;;;;;;;6.50;3.83;;;16.20;72.60;;;;;;4929342;28;20086;-83
2023/05/09 06:25:33;;;;;;;5.72;3.88;;;16.20;72.50;;;;;;4937527;28;20204;-82
2023/05/09 06:27:59;;;;;;;5.72;3.60;;;16.20;72.50;;;;;;4948816;28;20047;-84
2023/05/09 06:30:25;;;;;;;6.32;3.60;;;16.20;72.50;;;;;;4936480;28;20430;-84
2023/05/09 06:32:51;;;;;;;5.95;4.15;;;16.30;72.60;;;;;;4937911;28;20030;-82
2023/05/09 06:35:17;;;;;;;3.60;3.08;;;16.30;73.10;;;;;;4933423;28;20039;-82
2023/05/09 06:37:42;;;;;;;4.50;3.30;;;16.30;72.50;;;;;;4934010;28;20031;-84
2023/05/09 06:40:09;;;;;;;4.68;3.00;;;16.30;72.40;;;;;;4938011;28;20035;-84
2023/05/09 06:42:35;;;;;;;4.00;3.25;;;16.40;72.40;;;;;;4946819;28;20101;-84
2023/05/09 06:45:00;;;;;;;4.20;3.20;;;16.50;72.50;;;;;;4936496;28;20036;-84
2023/05/09 06:47:26;;;;;;;4.00;2.70;;;16.50;72.40;;;;;;4938932;28;20047;-84
2023/05/09 06:49:52;;;;;;;3.63;3.28;;;16.50;72.20;;;;;;4935521;28;20571;-84
2023/05/09 06:52:20;;;;;;;4.15;3.00;;;16.60;72.30;;;;;;4937544;28;20032;-85
2023/05/09 06:54:46;;;;;;;4.40;3.15;;;16.60;72.20;;;;;;4951333;28;20330;-85
2023/05/09 06:57:12;;;;;;;3.65;2.95;;;16.70;72.30;;;;;;4958034;28;20043;-83
2023/05/09 06:59:38;;;;;;;3.85;3.05;;;16.70;72.20;;;;;;4958082;28;20080;-86
2023/05/09 07:02:04;;;;;;;3.67;2.95;;;16.70;72.10;;;;;;4965616;28;20233;-82
2023/05/09 07:04:30;;;;;;;4.38;3.22;;;16.80;72.30;;;;;;4964760;28;20075;-83
2023/05/09 07:06:56;;;;;;;4.38;3.42;;;16.80;72.20;;;;;;4959657;28;20031;-82
2023/05/09 07:09:40;;;;;;;3.75;3.28;;;16.80;72.10;;;;;;4934312;28;20301;-82
2023/05/09 07:12:06;;;;;;;5.32;2.92;;;16.90;72.30;;;;;;4935403;28;20031;-84
2023/05/09 07:14:32;;;;;;;5.03;3.25;;;16.90;72.20;;;;;;4938137;28;20443;-85
2023/05/09 07:16:58;;;;;;;4.15;3.33;;;16.90;72.10;;;;;;4939652;28;20188;-85
2023/05/09 07:19:25;;;;;;;3.33;2.60;;;17.00;72.20;;;;;;4936181;28;20033;-84
2023/05/09 07:21:51;;;;;;;4.95;3.45;;;17.00;72.10;;;;;;4937452;28;20035;-82
2023/05/09 07:24:17;;;;;;;3.45;3.05;;;17.00;72.00;;;;;;4942097;28;20043;-82
2023/05/09 07:26:43;;;;;;;3.33;3.03;;;17.10;72.20;;;;;;4937524;28;20042;-82
2023/05/09 07:29:09;;;;;;;6.50;3.25;;;17.10;72.10;;;;;;4932692;28;20226;-83
2023/05/09 07:31:35;;;;;;;3.95;2.80;;;17.10;72.00;;;;;;4934922;28;20043;-83
2023/05/09 07:34:01;;;;;;;5.45;3.25;;;17.10;71.90;;;;;;4938746;28;20139;-83
2023/05/09 07:36:26;;;;;;;5.20;3.33;;;17.20;72.00;;;;;;4935147;28;20126;-83
2023/05/09 07:38:53;;;;;;;4.15;2.45;;;17.20;71.90;;;;;;4933692;28;20050;-81
2023/05/09 07:41:19;;;;;;;4.82;3.08;;;17.20;71.80;;;;;;4932475;28;20089;-84
2023/05/09 07:43:45;;;;;;;3.85;2.22;;;17.40;72.00;;;;;;4926506;28;20257;-83
2023/05/09 07:46:11;;;;;;;3.20;2.47;;;17.40;71.90;;;;;;4933227;28;20047;-86
2023/05/09 07:48:37;;;;;;;3.83;2.20;;;17.50;71.80;;;;;;4935466;28;20043;-86
2023/05/09 07:51:03;;;;;;;4.53;2.53;;;17.50;71.60;;;;;;4935662;28;20140;-85
2023/05/09 07:53:29;;;;;;;4.10;2.45;;;17.60;71.70;;;;;;4932305;28;20114;-82
2023/05/09 07:55:55;;;;;;;4.50;2.20;;;17.70;71.80;;;;;;4943737;28;20078;-83
2023/05/09 07:58:21;;;;;;;5.40;2.35;;;17.80;71.70;;;;;;4931127;28;20040;-82
2023/05/09 08:00:46;;;;;;;4.18;2.60;;;17.90;71.60;;;;;;4946005;28;20446;-82
2023/05/09 08:03:12;;;;;;;3.28;2.20;;;18.10;71.70;;;;;;4946767;28;20529;-88
2023/05/09 08:05:38;;;;;;;3.28;2.20;;;18.30;71.70;;;;;;4949447;28;20035;-85
2023/05/09 08:08:04;;;;;;;3.13;2.03;;;18.40;71.90;;;;;;4939202;28;20235;-82
2023/05/09 08:10:32;;;;;;;3.58;2.53;;;18.50;71.20;;;;;;4939764;28;20454;-82
2023/05/09 08:12:58;;;;;;;4.53;1.88;;;18.60;71.20;;;;;;4937057;28;20593;-83
2023/05/09 08:15:24;;;;;;;2.88;1.60;;;18.60;71.00;;;;;;4932653;28;20071;-82
2023/05/09 08:17:50;;;;;;;3.08;1.85;;;18.70;71.10;;;;;;4931352;28;20233;-81
2023/05/09 08:20:16;;;;;;;2.00;1.60;;;18.70;71.30;;;;;;4937796;28;20069;-81
2023/05/09 08:22:42;;;;;;;2.70;1.77;;;18.80;71.60;;;;;;4937008;28;20462;-81
2023/05/09 08:25:08;;;;;;;1.98;1.60;;;18.80;71.70;;;;;;4931790;28;20058;-81
2023/05/09 08:27:34;;;;;;;2.28;1.50;;;18.90;71.90;;;;;;4930215;28;20673;-82
2023/05/09 08:30:00;;;;;;;4.05;1.60;;;19.00;72.10;;;;;;4934866;28;20034;-83
2023/05/09 08:32:26;;;;;;;2.05;1.75;;;19.00;72.00;;;;;;4933662;28;20027;-85
2023/05/09 08:34:52;;;;;;;4.47;2.00;;;19.00;71.90;;;;;;4933687;28;20073;-84
2023/05/09 08:37:18;;;;;;;2.05;1.50;;;19.10;72.10;;;;;;4935608;29;20039;-83
2023/05/09 08:39:43;;;;;;;2.45;1.67;;;19.00;71.90;;;;;;4932141;28;20094;-81
2023/05/09 08:42:10;;;;;;;1.40;1.30;;;19.10;72.10;;;;;;4933638;28;20035;-80
2023/05/09 08:44:36;;;;;;;1.65;1.23;;;19.10;72.10;;;;;;4932004;28;20366;-82
2023/05/09 08:47:03;;;;;;;1.10;1.00;;;19.20;72.20;;;;;;4931727;28;20384;-81
2023/05/09 08:49:29;;;;;;;2.17;1.42;;;19.30;72.20;;;;;;4932187;28;20078;-82
2023/05/09 08:51:56;;;;;;;1.23;0.95;;;19.40;72.00;;;;;;4931744;28;20452;-82
2023/05/09 08:54:23;;;;;;;1.50;1.02;;;19.50;71.90;;;;;;4929374;28;20550;-82
2023/05/09 08:56:50;;;;;;;1.13;1.02;;;19.60;71.90;;;;;;4935403;28;20047;-81
2023/05/09 08:59:16;;;;;;;1.42;1.27;;;19.70;71.80;;;;;;4929047;28;20086;-80
2023/05/09 09:01:43;;;;;;;1.58;0.90;;;19.80;71.70;;;;;;4934508;28;20526;-79
2023/05/09 09:04:10;;;;;;;1.35;0.80;;;19.80;71.40;;;;;;4939233;28;20116;-80
2023/05/09 09:06:38;;;;;;;2.00;1.17;;;19.90;71.40;;;;;;4931953;28;20124;-80
2023/05/09 09:09:08;;;;;;;1.73;1.33;;;19.90;71.80;;;;;;4930344;28;20287;-81
2023/05/09 09:11:36;;;;;;;3.13;1.25;;;19.90;71.20;;;;;;4929591;28;20031;-81
2023/05/09 09:14:14;;;;;;;1.00;0.82;;;20.00;71.30;;;;;;4935471;28;20043;-84
2023/05/09 09:16:42;;;;;;;1.48;0.93;;;20.00;71.20;;;;;;4933085;28;20046;-80
2023/05/09 09:19:11;;;;;;;1.75;0.80;;;20.00;71.10;;;;;;4937381;28;20094;-80
2023/05/09 09:21:41;;;;;;;1.10;0.90;;;20.10;71.00;;;;;;4938910;28;20035;-83
2023/05/09 09:24:08;;;;;;;1.20;1.00;;;20.20;71.00;;;;;;4934569;28;20039;-83
2023/05/09 09:26:44;;;;;;;1.70;1.20;;;20.30;70.90;;;;;;4942207;28;20142;-82
2023/05/09 09:29:10;;;;;;;1.35;1.08;;;20.30;71.10;;;;;;4936551;28;20520;-82
2023/05/09 09:31:36;;;;;;;1.05;0.95;;;20.40;70.50;;;;;;4935053;28;20039;-80
2023/05/09 09:34:02;;;;;;;1.40;1.13;;;20.40;70.30;;;;;;4937823;28;20042;-81
2023/05/09 09:36:31;;;;;;;1.60;0.98;;;20.50;70.20;;;;;;4939643;28;20054;-83
2023/05/09 09:39:03;;;;;;;1.63;0.95;;;20.50;70.00;;;;;;4930994;28;20035;-83
2023/05/09 09:41:30;;;;;;;;;;;20.50;69.90;;;;;;4954363;28;20440;-83
2023/05/09 09:43:56;;;;;;;1.33;0.90;;;20.50;69.80;;;;;;4952414;28;19924;-82
2023/05/09 09:46:23;;;;;;;2.67;0.90;;;20.60;70.00;;;;;;4928169;28;20035;-82
2023/05/09 09:48:53;;;;;;;1.40;1.00;;;20.60;69.80;;;;;;4929038;28;20035;-83
2023/05/09 09:51:20;;;;;;;2.30;1.40;;;20.70;69.80;;;;;;4925075;29;20155;-81
2023/05/09 09:53:46;;;;;;;2.53;1.60;;;20.80;69.60;;;;;;4932069;28;20070;-81
2023/05/09 09:56:12;;;;;;;1.55;1.33;;;20.90;69.50;;;;;;4936579;28;20048;-82
2023/05/09 09:58:38;;;;;;;2.03;1.65;;;21.10;69.50;;;;;;4929302;28;20040;-82
2023/05/09 10:01:19;;;;;;;1.88;1.40;;;21.10;69.10;;;;;;4933098;28;20143;-83
2023/05/09 10:03:45;;;;;;;1.80;1.70;;;21.20;69.10;;;;;;4935154;28;20065;-82
2023/05/09 10:06:13;;;;;;;1.83;1.65;;;21.30;69.10;;;;;;4933998;28;20043;-82
2023/05/09 10:08:40;;;;;;;1.40;1.30;;;21.30;68.80;;;;;;4933314;28;20037;-81
2023/05/09 10:11:06;;;;;;;1.58;1.48;;;21.40;68.80;;;;;;4937147;28;20098;-83
2023/05/09 10:13:36;;;;;;;1.88;1.60;;;21.40;69.30;;;;;;4932559;28;20150;-83
2023/05/09 10:16:03;;;;;;;1.75;1.58;;;21.40;68.60;;;;;;4941288;28;20039;-83
2023/05/09 10:18:30;;;;;;;1.60;1.50;;;21.30;68.40;;;;;;4938245;28;20023;-83
2023/05/09 10:21:02;;;;;;;1.45;1.35;;;21.30;68.50;;;;;;4948455;28;20130;-83
2023/05/09 10:23:36;;;;;;;1.83;1.52;;;21.20;68.40;;;;;;4937624;28;20062;-83
2023/05/09 10:26:16;;;;;;;1.63;1.52;;;21.20;68.40;;;;;;4936004;28;20126;-84
2023/05/09 10:28:45;;;;;;;1.50;1.40;;;21.20;68.30;;;;;;4933563;28;20035;-82
2023/05/09 10:31:18;;;;;;;1.85;1.70;;;21.20;68.30;;;;;;4933830;28;20059;-82
2023/05/09 10:33:49;;;;;;;5.95;1.60;;;21.20;68.20;;;;;;4936262;28;20141;-82
2023/05/09 10:36:20;;;;;;;1.92;1.83;;;21.20;68.20;;;;;;4938390;28;20239;-82
2023/05/09 10:38:47;;;;;;;1.92;1.70;;;21.30;68.20;;;;;;4937328;28;20507;-81
2023/05/09 10:41:15;;;;;;;2.25;2.05;;;21.30;68.10;;;;;;4934997;28;20433;-81
2023/05/09 10:43:41;;;;;;;2.42;2.22;;;21.40;67.90;;;;;;4929726;28;20484;-80
2023/05/09 10:46:08;;;;;;;2.78;1.73;;;21.60;67.90;;;;;;4926133;28;20043;-83
2023/05/09 10:48:36;;;;;;;2.42;2.22;;;21.80;67.90;;;;;;4943827;28;20415;-84
2023/05/09 10:51:03;;;;;;;2.28;1.88;;;21.90;67.60;;;;;;4928878;28;20040;-85
2023/05/09 10:53:50;;;;;;;3.00;1.88;;;22.10;67.60;;;;;;4940558;28;20031;-85
2023/05/09 10:56:27;;;;;;;2.25;2.05;;;22.30;67.40;;;;;;4930013;28;20519;-87
2023/05/09 10:58:53;;;;;;;2.08;1.90;;;22.50;67.30;;;;;;4936498;28;20399;-85
2023/05/09 11:01:38;;;;;;;2.13;1.90;;;22.70;67.20;;;;;;4947776;28;20057;-85
2023/05/09 11:04:15;;;;;;;2.55;1.73;;;22.90;66.90;;;;;;4928354;28;20121;-82
2023/05/09 11:06:47;;;;;;;1.98;1.80;;;23.10;66.80;;;;;;4940534;28;20504;-81
2023/05/09 11:09:40;;;;;;;2.25;2.05;;;23.30;66.80;;;;;;4936105;28;20037;-83
2023/05/09 11:12:10;;;;;;;2.45;2.25;;;23.50;66.50;;;;;;4931833;28;20221;-83
2023/05/09 11:14:54;;;;;;;2.15;1.92;;;23.70;66.50;;;;;;4938189;28;20465;-82
2023/05/09 11:17:21;;;;;;;1.88;1.77;;;23.90;66.30;;;;;;4933510;28;20524;-84
2023/05/09 11:19:47;;;;;;;2.50;2.30;;;24.10;66.30;;;;;;4938076;28;20034;-83
2023/05/09 11:22:19;;;;;;;2.50;2.30;;;24.20;66.00;;;;;;4936851;28;20086;-83
2023/05/09 11:24:47;;;;;;;2.08;1.98;;;24.20;65.60;;;;;;4936140;28;20027;-83
2023/05/09 11:27:24;;;;;;;1.45;1.35;;;24.30;65.70;;;;;;4937246;28;20126;-83
2023/05/09 11:30:03;;;;;;;1.70;1.58;;;24.40;65.60;;;;;;4934003;28;20254;-88
2023/05/09 11:32:39;;;;;;;1.90;1.65;;;24.50;65.60;;;;;;4934928;28;20067;-81
2023/05/09 11:35:06;;;;;;;2.00;1.90;;;24.60;65.50;;;;;;4931985;28;20110;-80
2023/05/09 11:37:32;;;;;;;2.20;1.95;;;24.80;65.50;;;;;;4934961;28;20518;-81
2023/05/09 11:40:03;;;;;;;2.47;2.05;;;24.90;65.30;;;;;;4938489;28;20427;-80
2023/05/09 11:42:30;;;;;;;1.70;1.60;;;25.10;65.10;;;;;;4936709;28;20077;-81
2023/05/09 11:44:57;;;;;;;1.70;1.60;;;25.10;64.80;;;;;;4934186;28;20095;-80
2023/05/09 11:47:24;;;;;;;1.95;1.75;;;25.20;64.70;;;;;;4943366;28;20051;-80
2023/05/09 11:49:50;;;;;;;1.77;1.67;;;25.30;64.50;;;;;;4961787;28;20259;-81
2023/05/09 11:52:21;;;;;;;2.25;2.05;;;25.50;64.10;;;;;;4960586;28;20011;-81
2023/05/09 11:54:48;;;;;;;2.45;1.58;;;25.70;63.60;;;;;;4962870;28;20036;-79
2023/05/09 11:57:16;;;;;;;1.58;1.48;;;25.90;63.30;;;;;;4961458;28;20039;-79
2023/05/09 11:59:44;;;;;;;1.75;1.35;;;26.00;63.00;;;;;;4959315;28;20664;-81
2023/05/09 12:02:10;;;;;;;1.80;1.42;;;26.20;62.60;;;;;;4965717;28;20031;-80
2023/05/09 12:04:36;;;;;;;1.77;1.67;;;26.50;62.30;;;;;;4951576;28;20513;-81
2023/05/09 12:07:02;;;;;;;2.20;1.48;;;26.70;61.90;;;;;;4922912;29;20032;-82
2023/05/09 12:09:32;;;;;;;2.10;1.35;;;26.90;61.40;;;;;;4945677;28;20031;-83
2023/05/09 12:11:59;;;;;;;1.35;1.25;;;27.10;61.00;;;;;;4946711;28;20094;-84
2023/05/09 12:14:35;;;;;;;1.17;1.08;;;27.30;60.60;;;;;;4941279;28;20035;-82
2023/05/09 12:17:01;;;;;;;1.23;1.13;;;27.50;59.90;;;;;;4939322;28;20070;-84
2023/05/09 12:19:27;;;;;;;1.40;1.30;;;27.70;59.70;;;;;;4941392;28;20077;-82
2023/05/09 12:21:57;;;;;;;0.80;0.80;;;27.80;59.30;;;;;;4942293;28;20043;-83
2023/05/09 12:24:28;;;;;;;2.63;1.27;;;28.10;58.90;;;;;;4942783;28;20042;-84
2023/05/09 12:26:56;;;;;;;0.82;0.80;;;28.30;58.60;;;;;;4939107;28;20042;-83
2023/05/09 12:29:23;;;;;;;0.95;0.88;;;28.50;58.30;;;;;;4936983;28;20028;-82
2023/05/09 12:31:50;;;;;;;1.17;1.02;;;28.70;57.80;;;;;;4943545;28;20042;-82
2023/05/09 12:34:16;;;;;;;0.82;0.82;;;29.00;57.40;;;;;;4941855;28;20105;-89
2023/05/09 12:36:50;;;;;;;3.42;0.85;;;29.20;56.90;;;;;;4948395;28;20046;-82
2023/05/09 12:39:17;;;;;;;0.85;0.77;;;29.40;56.50;;;;;;4957297;28;20035;-82
2023/05/09 12:41:44;;;;;;;1.05;0.95;;;29.50;56.10;;;;;;4932622;29;20044;-82
2023/05/09 12:44:18;;;;;;;0.80;0.80;;;29.60;55.70;;;;;;4936230;28;20039;-83
2023/05/09 12:46:57;;;;;;;1.90;0.95;;;29.60;55.30;;;;;;4938145;28;20128;-84
2023/05/09 12:49:23;;;;;;;0.90;0.80;;;29.60;55.20;;;;;;4943700;28;20027;-85
2023/05/09 12:51:50;;;;;;;1.05;0.70;;;29.60;55.40;;;;;;4945116;28;20071;-83
2023/05/09 12:54:27;;;;;;;1.10;0.80;;;29.50;55.30;;;;;;4946544;28;20042;-83